sensor_id;sensor_type;location;lat;lon;timestamp;temperature;humidity
36752;DHT22;22718;49.494;7.036;2023-05-16T00:00:05;10.80;99.90
36752;DHT22;22718;49.494;7.036;2023-05-16T00:02:33;10.80;99.90
36752;DHT22;22718;49.494;7.036;2023-05-16T00:05:00;10.70;99.90
36752;DHT22;22718;49.494;7.036;2023-05-16T00:07:25;10.70;99.90
36752;DHT22;22718;49.494;7.036;2023-05-16T00:09:51;10.70;99.90
36752;DHT22;22718;49.494;7.036;2023-05-16T00:12:16;10.70;99.90
36752;DHT22;22718;49.494;7.036;2023-05-16T00:14:44;10.70;99.90
36752;DHT22;22718;49.494;7.036;2023-05-16T00:17:09;10.70;99.90
36752;DHT22;22718;49.494;7.036;2023-05-16T00:19:36;10.70;99.90
36752;DHT22;22718;49.494;7.036;2023-05-16T00:22:03;10.70;99.90
36752;DHT22;22718;49.494;7.036;2023-05-16T00:24:33;10.60;99.90
36752;DHT22;22718;49.494;7.036;2023-05-16T00:26:58;10.60;99.90
36752;DHT22;22718;49.494;7.036;2023-05-16T00:29:24;10.60;99.90
36752;DHT22;22718;49.494;7.036;2023-05-16T00:31:49;10.60;99.90
36752;DHT22;22718;49.494;7.036;2023-05-16T00:34:15;10.60;99.90
36752;DHT22;22718;49.494;7.036;2023-05-16T00:36:40;10.60;99.90
36752;DHT22;22718;49.494;7.036;2023-05-16T00:39:06;10.60;99.90
36752;DHT22;22718;49.494;7.036;2023-05-16T00:41:32;10.70;99.90
36752;DHT22;22718;49.494;7.036;2023-05-16T00:43:58;10.60;99.90
36752;DHT22;22718;49.494;7.036;2023-05-16T00:46:24;10.70;99.90
36752;DHT22;22718;49.494;7.036;2023-05-16T00:48:49;10.70;99.90
36752;DHT22;22718;49.494;7.036;2023-05-16T00:51:16;10.60;99.90
36752;DHT22;22718;49.494;7.036;2023-05-16T00:53:41;10.70;99.90
36752;DHT22;22718;49.494;7.036;2023-05-16T00:56:07;10.60;99.90
36752;DHT22;22718;49.494;7.036;2023-05-16T00:58:33;10.60;99.90
36752;DHT22;22718;49.494;7.036;2023-05-16T01:01:01;10.60;99.90
36752;DHT22;22718;49.494;7.036;2023-05-16T01:03:30;10.60;99.90
36752;DHT22;22718;49.494;7.036;2023-05-16T01:05:56;10.50;99.90
36752;DHT22;22718;49.494;7.036;2023-05-16T01:08:22;10.50;99.90
36752;DHT22;22718;49.494;7.036;2023-05-16T01:10:59;10.60;99.90
36752;DHT22;22718;49.494;7.036;2023-05-16T01:13:32;10.60;99.90
36752;DHT22;22718;49.494;7.036;2023-05-16T01:20:58;10.60;99.90
36752;DHT22;22718;49.494;7.036;2023-05-16T01:26:09;10.60;99.90
36752;DHT22;22718;49.494;7.036;2023-05-16T01:28:34;10.50;99.90
36752;DHT22;22718;49.494;7.036;2023-05-16T01:31:00;10.50;99.90
36752;DHT22;22718;49.494;7.036;2023-05-16T01:33:27;10.50;99.90
36752;DHT22;22718;49.494;7.036;2023-05-16T01:36:05;10.50;99.90
36752;DHT22;22718;49.494;7.036;2023-05-16T01:43:36;10.40;99.90
36752;DHT22;22718;49.494;7.036;2023-05-16T01:46:14;10.50;99.90
36752;DHT22;22718;49.494;7.036;2023-05-16T01:49:24;10.30;99.90
36752;DHT22;22718;49.494;7.036;2023-05-16T01:51:31;10.30;99.90
36752;DHT22;22718;49.494;7.036;2023-05-16T01:53:59;10.40;99.90
36752;DHT22;22718;49.494;7.036;2023-05-16T01:56:26;10.30;99.90
36752;DHT22;22718;49.494;7.036;2023-05-16T01:58:52;10.30;99.90
36752;DHT22;22718;49.494;7.036;2023-05-16T02:01:18;10.30;99.90
36752;DHT22;22718;49.494;7.036;2023-05-16T02:03:44;10.40;99.90
36752;DHT22;22718;49.494;7.036;2023-05-16T02:06:09;10.30;99.90
36752;DHT22;22718;49.494;7.036;2023-05-16T02:08:35;10.30;99.90
36752;DHT22;22718;49.494;7.036;2023-05-16T02:11:00;10.30;99.90
36752;DHT22;22718;49.494;7.036;2023-05-16T02:13:26;10.30;99.90
36752;DHT22;22718;49.494;7.036;2023-05-16T02:15:51;13.30;99.90
36752;DHT22;22718;49.494;7.036;2023-05-16T02:18:17;10.20;99.90
36752;DHT22;22718;49.494;7.036;2023-05-16T02:20:43;10.20;99.90
36752;DHT22;22718;49.494;7.036;2023-05-16T02:23:08;10.10;99.90
36752;DHT22;22718;49.494;7.036;2023-05-16T02:25:34;10.10;99.90
36752;DHT22;22718;49.494;7.036;2023-05-16T02:27:59;10.10;99.90
36752;DHT22;22718;49.494;7.036;2023-05-16T02:30:25;10.10;99.90
36752;DHT22;22718;49.494;7.036;2023-05-16T02:32:51;10.10;99.90
36752;DHT22;22718;49.494;7.036;2023-05-16T02:35:17;10.10;99.90
36752;DHT22;22718;49.494;7.036;2023-05-16T02:37:43;10.10;99.90
36752;DHT22;22718;49.494;7.036;2023-05-16T02:40:09;10.10;99.90
36752;DHT22;22718;49.494;7.036;2023-05-16T02:42:34;10.10;99.90
36752;DHT22;22718;49.494;7.036;2023-05-16T02:45:00;10.10;99.90
36752;DHT22;22718;49.494;7.036;2023-05-16T02:47:25;10.10;99.90
36752;DHT22;22718;49.494;7.036;2023-05-16T02:49:51;10.10;99.90
36752;DHT22;22718;49.494;7.036;2023-05-16T02:52:17;10.00;99.90
36752;DHT22;22718;49.494;7.036;2023-05-16T02:54:43;10.00;99.90
36752;DHT22;22718;49.494;7.036;2023-05-16T02:57:08;10.00;99.90
36752;DHT22;22718;49.494;7.036;2023-05-16T02:59:37;9.90;99.90
36752;DHT22;22718;49.494;7.036;2023-05-16T03:02:05;9.80;99.90
36752;DHT22;22718;49.494;7.036;2023-05-16T03:04:31;9.90;99.90
36752;DHT22;22718;49.494;7.036;2023-05-16T03:06:59;9.80;99.90
36752;DHT22;22718;49.494;7.036;2023-05-16T03:09:25;9.80;99.90
36752;DHT22;22718;49.494;7.036;2023-05-16T03:11:50;9.70;99.90
36752;DHT22;22718;49.494;7.036;2023-05-16T03:14:16;9.70;99.90
36752;DHT22;22718;49.494;7.036;2023-05-16T03:16:41;9.60;99.90
36752;DHT22;22718;49.494;7.036;2023-05-16T03:19:08;9.60;99.90
36752;DHT22;22718;49.494;7.036;2023-05-16T03:21:33;9.60;99.90
36752;DHT22;22718;49.494;7.036;2023-05-16T03:24:01;9.60;99.90
36752;DHT22;22718;49.494;7.036;2023-05-16T03:26:27;9.60;99.90
36752;DHT22;22718;49.494;7.036;2023-05-16T03:28:52;9.60;99.90
36752;DHT22;22718;49.494;7.036;2023-05-16T03:31:18;9.70;99.90
36752;DHT22;22718;49.494;7.036;2023-05-16T03:33:44;9.70;99.90
36752;DHT22;22718;49.494;7.036;2023-05-16T03:36:09;9.70;99.90
36752;DHT22;22718;49.494;7.036;2023-05-16T03:38:35;9.70;99.90
36752;DHT22;22718;49.494;7.036;2023-05-16T03:41:01;9.80;99.90
36752;DHT22;22718;49.494;7.036;2023-05-16T03:43:26;9.70;99.90
36752;DHT22;22718;49.494;7.036;2023-05-16T03:45:52;9.80;99.90
36752;DHT22;22718;49.494;7.036;2023-05-16T03:48:18;9.80;99.90
36752;DHT22;22718;49.494;7.036;2023-05-16T03:50:43;9.80;99.90
36752;DHT22;22718;49.494;7.036;2023-05-16T03:53:09;9.80;99.90
36752;DHT22;22718;49.494;7.036;2023-05-16T03:55:36;9.90;99.90
36752;DHT22;22718;49.494;7.036;2023-05-16T03:58:01;9.90;99.90
36752;DHT22;22718;49.494;7.036;2023-05-16T04:00:27;9.90;99.90
36752;DHT22;22718;49.494;7.036;2023-05-16T04:02:53;9.90;99.90
36752;DHT22;22718;49.494;7.036;2023-05-16T04:05:18;9.90;99.90
36752;DHT22;22718;49.494;7.036;2023-05-16T04:07:44;9.90;99.90
36752;DHT22;22718;49.494;7.036;2023-05-16T04:10:09;10.00;99.90
36752;DHT22;22718;49.494;7.036;2023-05-16T04:12:35;10.00;99.90
36752;DHT22;22718;49.494;7.036;2023-05-16T04:15:02;10.00;99.90
36752;DHT22;22718;49.494;7.036;2023-05-16T04:17:27;10.00;99.90
36752;DHT22;22718;49.494;7.036;2023-05-16T04:19:53;10.00;99.90
36752;DHT22;22718;49.494;7.036;2023-05-16T04:22:20;10.10;99.90
36752;DHT22;22718;49.494;7.036;2023-05-16T04:24:45;10.10;99.90
36752;DHT22;22718;49.494;7.036;2023-05-16T04:27:11;10.10;99.90
36752;DHT22;22718;49.494;7.036;2023-05-16T04:29:36;9.90;99.90
36752;DHT22;22718;49.494;7.036;2023-05-16T04:32:02;9.90;99.90
36752;DHT22;22718;49.494;7.036;2023-05-16T04:34:28;9.90;99.90
36752;DHT22;22718;49.494;7.036;2023-05-16T04:36:53;9.90;99.90
36752;DHT22;22718;49.494;7.036;2023-05-16T04:39:19;9.90;99.90
36752;DHT22;22718;49.494;7.036;2023-05-16T04:41:45;9.90;99.90
36752;DHT22;22718;49.494;7.036;2023-05-16T04:44:10;9.90;99.90
36752;DHT22;22718;49.494;7.036;2023-05-16T04:46:36;9.90;99.90
36752;DHT22;22718;49.494;7.036;2023-05-16T04:49:01;9.90;99.90
36752;DHT22;22718;49.494;7.036;2023-05-16T04:51:27;9.90;99.90
36752;DHT22;22718;49.494;7.036;2023-05-16T04:53:52;9.90;99.90
36752;DHT22;22718;49.494;7.036;2023-05-16T04:56:18;9.80;99.90
36752;DHT22;22718;49.494;7.036;2023-05-16T04:58:44;9.90;99.90
36752;DHT22;22718;49.494;7.036;2023-05-16T05:01:10;10.70;99.90
36752;DHT22;22718;49.494;7.036;2023-05-16T05:03:36;9.90;99.90
36752;DHT22;22718;49.494;7.036;2023-05-16T05:06:03;9.90;99.90
36752;DHT22;22718;49.494;7.036;2023-05-16T05:08:30;9.90;99.90
36752;DHT22;22718;49.494;7.036;2023-05-16T05:10:56;9.90;99.90
36752;DHT22;22718;49.494;7.036;2023-05-16T05:13:22;10.00;99.90
36752;DHT22;22718;49.494;7.036;2023-05-16T05:15:48;10.10;99.90
36752;DHT22;22718;49.494;7.036;2023-05-16T05:18:16;10.10;99.90
36752;DHT22;22718;49.494;7.036;2023-05-16T05:20:42;10.10;99.90
36752;DHT22;22718;49.494;7.036;2023-05-16T05:23:08;10.10;99.90
36752;DHT22;22718;49.494;7.036;2023-05-16T05:25:35;10.10;99.90
36752;DHT22;22718;49.494;7.036;2023-05-16T05:28:00;10.10;99.90
36752;DHT22;22718;49.494;7.036;2023-05-16T05:30:26;10.10;99.90
36752;DHT22;22718;49.494;7.036;2023-05-16T05:32:51;10.00;99.90
36752;DHT22;22718;49.494;7.036;2023-05-16T05:35:19;10.10;99.90
36752;DHT22;22718;49.494;7.036;2023-05-16T05:37:45;10.10;99.90
36752;DHT22;22718;49.494;7.036;2023-05-16T05:40:10;10.00;99.90
36752;DHT22;22718;49.494;7.036;2023-05-16T05:42:36;10.00;99.90
36752;DHT22;22718;49.494;7.036;2023-05-16T05:45:02;10.00;99.90
36752;DHT22;22718;49.494;7.036;2023-05-16T05:47:28;10.00;99.90
36752;DHT22;22718;49.494;7.036;2023-05-16T05:49:54;10.00;99.90
36752;DHT22;22718;49.494;7.036;2023-05-16T05:52:20;9.90;99.90
36752;DHT22;22718;49.494;7.036;2023-05-16T05:54:46;9.90;99.90
36752;DHT22;22718;49.494;7.036;2023-05-16T05:57:12;9.90;99.90
36752;DHT22;22718;49.494;7.036;2023-05-16T05:59:39;9.90;99.90
36752;DHT22;22718;49.494;7.036;2023-05-16T06:02:05;9.90;99.90
36752;DHT22;22718;49.494;7.036;2023-05-16T06:04:35;9.90;99.90
36752;DHT22;22718;49.494;7.036;2023-05-16T06:07:00;10.70;99.90
36752;DHT22;22718;49.494;7.036;2023-05-16T06:09:26;9.90;99.90
36752;DHT22;22718;49.494;7.036;2023-05-16T06:11:51;9.90;99.90
36752;DHT22;22718;49.494;7.036;2023-05-16T06:14:17;9.90;99.90
36752;DHT22;22718;49.494;7.036;2023-05-16T06:16:45;9.80;99.90
36752;DHT22;22718;49.494;7.036;2023-05-16T06:19:11;9.80;99.90
36752;DHT22;22718;49.494;7.036;2023-05-16T06:21:40;9.70;99.90
36752;DHT22;22718;49.494;7.036;2023-05-16T06:24:05;9.70;99.90
36752;DHT22;22718;49.494;7.036;2023-05-16T06:26:32;9.60;99.90
36752;DHT22;22718;49.494;7.036;2023-05-16T06:28:57;9.60;99.90
36752;DHT22;22718;49.494;7.036;2023-05-16T06:31:23;9.60;99.90
36752;DHT22;22718;49.494;7.036;2023-05-16T06:33:49;9.60;99.90
36752;DHT22;22718;49.494;7.036;2023-05-16T06:36:14;9.50;99.90
36752;DHT22;22718;49.494;7.036;2023-05-16T06:38:40;9.50;99.90
36752;DHT22;22718;49.494;7.036;2023-05-16T06:41:08;9.50;99.90
36752;DHT22;22718;49.494;7.036;2023-05-16T06:43:35;9.40;99.90
36752;DHT22;22718;49.494;7.036;2023-05-16T06:46:01;9.50;99.90
36752;DHT22;22718;49.494;7.036;2023-05-16T06:48:26;9.50;99.90
36752;DHT22;22718;49.494;7.036;2023-05-16T06:50:52;9.50;99.90
36752;DHT22;22718;49.494;7.036;2023-05-16T06:53:18;9.50;99.90
36752;DHT22;22718;49.494;7.036;2023-05-16T06:55:44;9.40;99.90
36752;DHT22;22718;49.494;7.036;2023-05-16T06:58:09;9.50;99.90
36752;DHT22;22718;49.494;7.036;2023-05-16T07:00:35;9.50;99.90
36752;DHT22;22718;49.494;7.036;2023-05-16T07:03:01;9.50;99.90
36752;DHT22;22718;49.494;7.036;2023-05-16T07:05:28;9.50;99.90
36752;DHT22;22718;49.494;7.036;2023-05-16T07:07:53;9.40;99.90
36752;DHT22;22718;49.494;7.036;2023-05-16T07:10:19;9.40;99.90
36752;DHT22;22718;49.494;7.036;2023-05-16T07:12:45;9.40;99.90
36752;DHT22;22718;49.494;7.036;2023-05-16T07:15:10;9.40;99.90
36752;DHT22;22718;49.494;7.036;2023-05-16T07:17:37;9.60;99.90
36752;DHT22;22718;49.494;7.036;2023-05-16T07:20:02;9.70;99.90
36752;DHT22;22718;49.494;7.036;2023-05-16T07:22:29;9.60;99.90
36752;DHT22;22718;49.494;7.036;2023-05-16T07:24:55;9.50;99.90
36752;DHT22;22718;49.494;7.036;2023-05-16T07:27:21;9.50;99.90
36752;DHT22;22718;49.494;7.036;2023-05-16T07:29:47;9.60;99.90
36752;DHT22;22718;49.494;7.036;2023-05-16T07:32:12;9.60;99.90
36752;DHT22;22718;49.494;7.036;2023-05-16T07:34:38;9.50;99.90
36752;DHT22;22718;49.494;7.036;2023-05-16T07:37:04;9.40;99.90
36752;DHT22;22718;49.494;7.036;2023-05-16T07:39:31;9.40;99.90
36752;DHT22;22718;49.494;7.036;2023-05-16T07:41:56;9.40;99.90
36752;DHT22;22718;49.494;7.036;2023-05-16T07:44:25;9.50;99.90
36752;DHT22;22718;49.494;7.036;2023-05-16T07:46:51;9.80;99.90
36752;DHT22;22718;49.494;7.036;2023-05-16T07:49:16;9.60;99.90
36752;DHT22;22718;49.494;7.036;2023-05-16T07:51:42;9.70;99.90
36752;DHT22;22718;49.494;7.036;2023-05-16T07:54:07;9.90;99.90
36752;DHT22;22718;49.494;7.036;2023-05-16T07:56:33;9.90;99.90
36752;DHT22;22718;49.494;7.036;2023-05-16T07:59:01;10.10;99.90
36752;DHT22;22718;49.494;7.036;2023-05-16T08:01:27;10.00;99.90
36752;DHT22;22718;49.494;7.036;2023-05-16T08:03:52;10.10;99.90
36752;DHT22;22718;49.494;7.036;2023-05-16T08:06:18;10.20;99.90
36752;DHT22;22718;49.494;7.036;2023-05-16T08:08:43;10.30;99.90
36752;DHT22;22718;49.494;7.036;2023-05-16T08:11:10;10.40;99.90
36752;DHT22;22718;49.494;7.036;2023-05-16T08:13:36;10.40;99.90
36752;DHT22;22718;49.494;7.036;2023-05-16T08:16:02;10.50;99.90
36752;DHT22;22718;49.494;7.036;2023-05-16T08:18:28;10.60;99.90
36752;DHT22;22718;49.494;7.036;2023-05-16T08:20:53;10.60;99.90
36752;DHT22;22718;49.494;7.036;2023-05-16T08:23:19;10.60;99.90
36752;DHT22;22718;49.494;7.036;2023-05-16T08:25:47;10.60;99.90
36752;DHT22;22718;49.494;7.036;2023-05-16T08:28:13;11.10;99.90
36752;DHT22;22718;49.494;7.036;2023-05-16T08:30:38;10.50;99.90
36752;DHT22;22718;49.494;7.036;2023-05-16T08:33:04;10.40;99.90
36752;DHT22;22718;49.494;7.036;2023-05-16T08:35:33;10.00;99.90
36752;DHT22;22718;49.494;7.036;2023-05-16T08:38:00;9.80;99.90
36752;DHT22;22718;49.494;7.036;2023-05-16T08:40:27;9.50;99.90
36752;DHT22;22718;49.494;7.036;2023-05-16T08:42:56;9.50;99.90
36752;DHT22;22718;49.494;7.036;2023-05-16T08:45:29;9.70;99.90
36752;DHT22;22718;49.494;7.036;2023-05-16T08:47:59;9.40;99.90
36752;DHT22;22718;49.494;7.036;2023-05-16T08:50:24;9.20;99.90
36752;DHT22;22718;49.494;7.036;2023-05-16T08:52:51;9.20;99.90
36752;DHT22;22718;49.494;7.036;2023-05-16T08:55:18;8.60;99.90
36752;DHT22;22718;49.494;7.036;2023-05-16T08:57:48;9.10;99.90
36752;DHT22;22718;49.494;7.036;2023-05-16T09:00:20;9.60;99.90
36752;DHT22;22718;49.494;7.036;2023-05-16T09:02:55;9.50;99.90
36752;DHT22;22718;49.494;7.036;2023-05-16T09:05:20;9.50;99.90
36752;DHT22;22718;49.494;7.036;2023-05-16T09:07:46;9.80;99.90
36752;DHT22;22718;49.494;7.036;2023-05-16T09:10:12;9.50;99.90
36752;DHT22;22718;49.494;7.036;2023-05-16T09:12:38;10.10;99.90
36752;DHT22;22718;49.494;7.036;2023-05-16T09:15:05;10.10;99.90
36752;DHT22;22718;49.494;7.036;2023-05-16T09:17:35;10.40;99.90
36752;DHT22;22718;49.494;7.036;2023-05-16T09:20:13;10.70;99.90
36752;DHT22;22718;49.494;7.036;2023-05-16T09:22:57;10.90;99.90
36752;DHT22;22718;49.494;7.036;2023-05-16T09:25:29;11.00;99.90
36752;DHT22;22718;49.494;7.036;2023-05-16T09:27:56;11.00;99.90
36752;DHT22;22718;49.494;7.036;2023-05-16T09:30:28;10.70;99.90
36752;DHT22;22718;49.494;7.036;2023-05-16T09:33:05;10.90;99.90
36752;DHT22;22718;49.494;7.036;2023-05-16T09:35:33;11.10;99.90
36752;DHT22;22718;49.494;7.036;2023-05-16T09:37:59;11.10;99.90
36752;DHT22;22718;49.494;7.036;2023-05-16T09:40:27;11.20;99.90
36752;DHT22;22718;49.494;7.036;2023-05-16T09:43:03;11.10;99.90
36752;DHT22;22718;49.494;7.036;2023-05-16T09:45:33;11.40;99.90
36752;DHT22;22718;49.494;7.036;2023-05-16T09:48:08;11.20;99.90
36752;DHT22;22718;49.494;7.036;2023-05-16T09:50:37;11.10;99.90
36752;DHT22;22718;49.494;7.036;2023-05-16T09:53:02;11.10;99.90
36752;DHT22;22718;49.494;7.036;2023-05-16T09:55:28;11.10;99.90
36752;DHT22;22718;49.494;7.036;2023-05-16T09:57:54;11.00;99.90
36752;DHT22;22718;49.494;7.036;2023-05-16T10:00:27;11.30;99.90
36752;DHT22;22718;49.494;7.036;2023-05-16T10:02:56;11.40;99.90
36752;DHT22;22718;49.494;7.036;2023-05-16T10:05:23;11.60;99.90
36752;DHT22;22718;49.494;7.036;2023-05-16T10:07:49;11.70;99.90
36752;DHT22;22718;49.494;7.036;2023-05-16T10:10:16;11.60;99.90
36752;DHT22;22718;49.494;7.036;2023-05-16T10:12:44;11.70;99.90
36752;DHT22;22718;49.494;7.036;2023-05-16T10:15:10;12.10;99.90
36752;DHT22;22718;49.494;7.036;2023-05-16T10:17:37;12.00;99.90
36752;DHT22;22718;49.494;7.036;2023-05-16T10:20:04;12.20;99.90
36752;DHT22;22718;49.494;7.036;2023-05-16T10:22:34;12.10;99.90
36752;DHT22;22718;49.494;7.036;2023-05-16T10:27:39;12.00;99.90
36752;DHT22;22718;49.494;7.036;2023-05-16T10:30:06;12.50;99.90
36752;DHT22;22718;49.494;7.036;2023-05-16T10:32:33;12.90;99.90
36752;DHT22;22718;49.494;7.036;2023-05-16T10:35:00;13.10;99.90
36752;DHT22;22718;49.494;7.036;2023-05-16T10:37:28;13.50;99.90
36752;DHT22;22718;49.494;7.036;2023-05-16T10:39:54;13.50;99.90
36752;DHT22;22718;49.494;7.036;2023-05-16T10:42:20;13.60;99.90
36752;DHT22;22718;49.494;7.036;2023-05-16T10:44:52;13.00;99.90
36752;DHT22;22718;49.494;7.036;2023-05-16T10:47:18;13.70;99.90
36752;DHT22;22718;49.494;7.036;2023-05-16T10:49:44;15.00;99.90
36752;DHT22;22718;49.494;7.036;2023-05-16T10:52:10;13.40;99.90
36752;DHT22;22718;49.494;7.036;2023-05-16T10:54:37;14.10;99.90
36752;DHT22;22718;49.494;7.036;2023-05-16T10:57:10;14.40;99.90
36752;DHT22;22718;49.494;7.036;2023-05-16T10:59:41;14.70;99.90
36752;DHT22;22718;49.494;7.036;2023-05-16T11:05:05;14.30;99.90
36752;DHT22;22718;49.494;7.036;2023-05-16T11:07:33;14.00;99.90
36752;DHT22;22718;49.494;7.036;2023-05-16T11:15:15;14.00;99.90
36752;DHT22;22718;49.494;7.036;2023-05-16T11:17:41;14.20;99.90
36752;DHT22;22718;49.494;7.036;2023-05-16T11:20:07;14.70;99.90
36752;DHT22;22718;49.494;7.036;2023-05-16T11:22:48;14.60;99.90
36752;DHT22;22718;49.494;7.036;2023-05-16T11:25:14;14.60;99.90
36752;DHT22;22718;49.494;7.036;2023-05-16T11:27:45;14.50;99.90
36752;DHT22;22718;49.494;7.036;2023-05-16T11:32:39;14.90;99.90
36752;DHT22;22718;49.494;7.036;2023-05-16T11:35:05;14.70;99.90
36752;DHT22;22718;49.494;7.036;2023-05-16T11:37:33;14.20;99.90
36752;DHT22;22718;49.494;7.036;2023-05-16T11:40:04;14.10;99.90
36752;DHT22;22718;49.494;7.036;2023-05-16T11:42:38;14.60;99.90
36752;DHT22;22718;49.494;7.036;2023-05-16T11:45:18;15.20;99.90
36752;DHT22;22718;49.494;7.036;2023-05-16T11:47:44;15.20;99.90
36752;DHT22;22718;49.494;7.036;2023-05-16T11:50:14;15.20;99.90
36752;DHT22;22718;49.494;7.036;2023-05-16T11:52:42;14.90;99.90
36752;DHT22;22718;49.494;7.036;2023-05-16T11:55:08;14.60;99.90
36752;DHT22;22718;49.494;7.036;2023-05-16T11:57:37;14.10;99.90
36752;DHT22;22718;49.494;7.036;2023-05-16T12:00:25;13.90;99.90
36752;DHT22;22718;49.494;7.036;2023-05-16T12:03:00;13.90;99.90
36752;DHT22;22718;49.494;7.036;2023-05-16T12:05:27;14.50;99.90
36752;DHT22;22718;49.494;7.036;2023-05-16T12:07:54;15.10;99.90
36752;DHT22;22718;49.494;7.036;2023-05-16T12:10:23;12.10;99.90
36752;DHT22;22718;49.494;7.036;2023-05-16T12:12:50;15.60;99.90
36752;DHT22;22718;49.494;7.036;2023-05-16T12:15:19;15.90;99.90
36752;DHT22;22718;49.494;7.036;2023-05-16T12:17:45;16.00;99.90
36752;DHT22;22718;49.494;7.036;2023-05-16T12:20:11;16.20;99.90
36752;DHT22;22718;49.494;7.036;2023-05-16T12:22:39;16.20;99.90
36752;DHT22;22718;49.494;7.036;2023-05-16T12:25:20;16.30;99.90
36752;DHT22;22718;49.494;7.036;2023-05-16T12:27:49;15.90;99.90
36752;DHT22;22718;49.494;7.036;2023-05-16T12:30:25;14.80;99.90
36752;DHT22;22718;49.494;7.036;2023-05-16T12:32:54;16.20;99.90
36752;DHT22;22718;49.494;7.036;2023-05-16T12:35:23;15.60;99.90
36752;DHT22;22718;49.494;7.036;2023-05-16T12:37:49;15.20;99.90
36752;DHT22;22718;49.494;7.036;2023-05-16T12:40:17;14.70;99.90
36752;DHT22;22718;49.494;7.036;2023-05-16T12:42:48;15.20;99.90
36752;DHT22;22718;49.494;7.036;2023-05-16T12:45:14;15.10;99.90
36752;DHT22;22718;49.494;7.036;2023-05-16T12:47:43;14.80;99.60
36752;DHT22;22718;49.494;7.036;2023-05-16T12:50:12;15.00;99.90
36752;DHT22;22718;49.494;7.036;2023-05-16T12:52:45;14.60;99.90
36752;DHT22;22718;49.494;7.036;2023-05-16T12:55:10;15.80;99.90
36752;DHT22;22718;49.494;7.036;2023-05-16T12:57:45;15.60;99.90
36752;DHT22;22718;49.494;7.036;2023-05-16T13:00:12;15.20;99.90
36752;DHT22;22718;49.494;7.036;2023-05-16T13:02:40;15.20;99.50
36752;DHT22;22718;49.494;7.036;2023-05-16T13:05:06;15.70;99.50
36752;DHT22;22718;49.494;7.036;2023-05-16T13:07:32;15.50;98.60
36752;DHT22;22718;49.494;7.036;2023-05-16T13:09:58;15.60;99.60
36752;DHT22;22718;49.494;7.036;2023-05-16T13:12:23;15.50;99.90
36752;DHT22;22718;49.494;7.036;2023-05-16T13:14:51;15.80;99.90
36752;DHT22;22718;49.494;7.036;2023-05-16T13:17:17;14.90;99.90
36752;DHT22;22718;49.494;7.036;2023-05-16T13:19:42;15.10;99.90
36752;DHT22;22718;49.494;7.036;2023-05-16T13:22:08;15.70;99.90
36752;DHT22;22718;49.494;7.036;2023-05-16T13:24:33;16.00;99.50
36752;DHT22;22718;49.494;7.036;2023-05-16T13:26:59;16.00;98.30
36752;DHT22;22718;49.494;7.036;2023-05-16T13:29:25;15.40;99.40
36752;DHT22;22718;49.494;7.036;2023-05-16T13:31:50;15.30;98.90
36752;DHT22;22718;49.494;7.036;2023-05-16T13:34:16;14.90;99.50
36752;DHT22;22718;49.494;7.036;2023-05-16T13:36:41;15.10;99.90
36752;DHT22;22718;49.494;7.036;2023-05-16T13:39:07;16.00;99.90
36752;DHT22;22718;49.494;7.036;2023-05-16T13:41:32;16.00;99.20
36752;DHT22;22718;49.494;7.036;2023-05-16T13:44:02;16.10;99.90
36752;DHT22;22718;49.494;7.036;2023-05-16T13:46:27;15.20;98.80
36752;DHT22;22718;49.494;7.036;2023-05-16T13:48:53;15.60;99.00
36752;DHT22;22718;49.494;7.036;2023-05-16T13:51:18;15.40;99.50
36752;DHT22;22718;49.494;7.036;2023-05-16T13:53:44;14.70;98.90
36752;DHT22;22718;49.494;7.036;2023-05-16T13:56:09;14.60;99.60
36752;DHT22;22718;49.494;7.036;2023-05-16T13:58:35;15.00;98.40
36752;DHT22;22718;49.494;7.036;2023-05-16T14:01:00;15.50;99.20
36752;DHT22;22718;49.494;7.036;2023-05-16T14:03:26;15.90;97.60
36752;DHT22;22718;49.494;7.036;2023-05-16T14:05:52;15.70;96.30
36752;DHT22;22718;49.494;7.036;2023-05-16T14:08:17;15.60;97.30
36752;DHT22;22718;49.494;7.036;2023-05-16T14:10:43;16.20;96.60
36752;DHT22;22718;49.494;7.036;2023-05-16T14:13:09;14.80;98.80
36752;DHT22;22718;49.494;7.036;2023-05-16T14:15:35;14.60;97.30
36752;DHT22;22718;49.494;7.036;2023-05-16T14:18:01;15.60;97.50
36752;DHT22;22718;49.494;7.036;2023-05-16T14:20:31;15.30;98.20
36752;DHT22;22718;49.494;7.036;2023-05-16T14:22:56;15.00;98.60
36752;DHT22;22718;49.494;7.036;2023-05-16T14:25:22;14.80;99.70
36752;DHT22;22718;49.494;7.036;2023-05-16T14:27:47;14.40;98.40
36752;DHT22;22718;49.494;7.036;2023-05-16T14:30:15;14.30;98.60
36752;DHT22;22718;49.494;7.036;2023-05-16T14:32:41;14.30;99.60
36752;DHT22;22718;49.494;7.036;2023-05-16T14:35:07;14.70;98.40
36752;DHT22;22718;49.494;7.036;2023-05-16T14:37:33;15.00;98.40
36752;DHT22;22718;49.494;7.036;2023-05-16T14:39:59;14.90;99.40
36752;DHT22;22718;49.494;7.036;2023-05-16T14:42:25;14.70;98.10
36752;DHT22;22718;49.494;7.036;2023-05-16T14:44:51;14.80;99.10
36752;DHT22;22718;49.494;7.036;2023-05-16T14:47:18;14.70;98.20
36752;DHT22;22718;49.494;7.036;2023-05-16T14:49:44;14.70;98.50
36752;DHT22;22718;49.494;7.036;2023-05-16T14:52:10;14.80;98.90
36752;DHT22;22718;49.494;7.036;2023-05-16T14:54:35;15.40;99.90
36752;DHT22;22718;49.494;7.036;2023-05-16T14:57:01;14.90;97.00
36752;DHT22;22718;49.494;7.036;2023-05-16T14:59:28;15.00;98.30
36752;DHT22;22718;49.494;7.036;2023-05-16T15:01:57;14.90;97.50
36752;DHT22;22718;49.494;7.036;2023-05-16T15:04:22;14.60;97.80
36752;DHT22;22718;49.494;7.036;2023-05-16T15:06:48;14.40;97.50
36752;DHT22;22718;49.494;7.036;2023-05-16T15:09:14;14.20;97.90
36752;DHT22;22718;49.494;7.036;2023-05-16T15:11:39;14.10;98.00
36752;DHT22;22718;49.494;7.036;2023-05-16T15:14:05;14.10;98.20
36752;DHT22;22718;49.494;7.036;2023-05-16T15:16:31;14.10;98.40
36752;DHT22;22718;49.494;7.036;2023-05-16T15:18:56;14.80;98.20
36752;DHT22;22718;49.494;7.036;2023-05-16T15:21:22;14.90;97.80
36752;DHT22;22718;49.494;7.036;2023-05-16T15:23:48;15.00;97.20
36752;DHT22;22718;49.494;7.036;2023-05-16T15:26:31;14.80;97.80
36752;DHT22;22718;49.494;7.036;2023-05-16T15:28:59;14.80;98.20
36752;DHT22;22718;49.494;7.036;2023-05-16T15:31:25;14.80;98.10
36752;DHT22;22718;49.494;7.036;2023-05-16T15:33:50;14.90;98.10
36752;DHT22;22718;49.494;7.036;2023-05-16T15:36:16;15.30;98.70
36752;DHT22;22718;49.494;7.036;2023-05-16T15:38:41;15.20;97.00
36752;DHT22;22718;49.494;7.036;2023-05-16T15:41:10;15.50;98.20
36752;DHT22;22718;49.494;7.036;2023-05-16T15:43:39;15.30;96.90
36752;DHT22;22718;49.494;7.036;2023-05-16T15:46:05;14.90;97.10
36752;DHT22;22718;49.494;7.036;2023-05-16T15:48:36;14.60;97.50
36752;DHT22;22718;49.494;7.036;2023-05-16T15:51:05;14.10;99.90
36752;DHT22;22718;49.494;7.036;2023-05-16T15:53:31;13.90;99.70
36752;DHT22;22718;49.494;7.036;2023-05-16T15:55:56;13.90;98.80
36752;DHT22;22718;49.494;7.036;2023-05-16T15:58:22;14.10;97.80